createdAt,value
2022-11-29T00:00:26.652Z,85.90
2022-11-29T00:05:53.690Z,92.80
2022-11-29T00:11:06.390Z,84.80
2022-11-29T00:16:14.847Z,93.00
2022-11-29T00:21:21.766Z,99.60
2022-11-29T00:26:28.794Z,89.90
2022-11-29T00:31:36.345Z,85.40
2022-11-29T00:36:43.231Z,81.00
2022-11-29T00:41:50.577Z,90.80
2022-11-29T00:46:57.540Z,84.60
2022-11-29T00:52:04.606Z,90.40
2022-11-29T00:57:11.534Z,77.40
2022-11-29T01:02:18.598Z,83.00
2022-11-29T01:07:25.713Z,87.60
2022-11-29T01:12:32.523Z,88.00
2022-11-29T01:17:40.274Z,85.60
2022-11-29T01:22:47.062Z,79.80
2022-11-29T01:27:53.944Z,77.70
2022-11-29T01:33:01.058Z,90.00
2022-11-29T01:38:07.802Z,94.90
2022-11-29T01:43:19.732Z,84.20
2022-11-29T01:48:28.588Z,86.30
2022-11-29T01:53:35.890Z,93.40
2022-11-29T01:58:43.596Z,87.20
2022-11-29T02:03:50.841Z,82.60
2022-11-29T02:08:58.051Z,78.00
2022-11-29T02:14:23.605Z,79.00
2022-11-29T02:20:05.697Z,74.90
2022-11-29T02:25:33.841Z,81.20
2022-11-29T02:30:59.778Z,76.40
2022-11-29T02:36:31.523Z,76.70
2022-11-29T02:42:00.677Z,77.70
2022-11-29T02:47:22.046Z,80.50
2022-11-29T02:52:37.411Z,79.60
2022-11-29T02:57:51.752Z,75.80
2022-11-29T03:03:07.211Z,71.80
2022-11-29T03:08:23.596Z,68.90
2022-11-29T03:13:39.163Z,69.30
2022-11-29T03:18:56.039Z,65.90
2022-11-29T03:24:10.687Z,72.00
2022-11-29T03:29:27.989Z,73.20
2022-11-29T03:34:55.777Z,72.50
2022-11-29T03:40:08.158Z,71.80
2022-11-29T03:45:23.959Z,71.20
2022-11-29T03:50:38.141Z,68.10
2022-11-29T03:55:54.578Z,70.70
2022-11-29T04:01:36.670Z,71.20
2022-11-29T04:06:56.613Z,72.70
2022-11-29T04:12:30.017Z,66.60
2022-11-29T04:17:51.825Z,71.60
2022-11-29T04:23:33.824Z,71.30
2022-11-29T04:29:10.615Z,68.80
2022-11-29T04:35:08.309Z,68.10
2022-11-29T04:40:32.776Z,73.50
2022-11-29T04:45:54.995Z,77.50
2022-11-29T04:56:22.444Z,71.70
2022-11-29T05:01:39.974Z,71.80
2022-11-29T05:06:59.462Z,70.40
2022-11-29T05:12:16.841Z,76.60
2022-11-29T05:17:40.814Z,67.70
2022-11-29T05:23:03.763Z,68.20
2022-11-29T05:28:17.360Z,75.30
2022-11-29T05:33:38.883Z,73.40
2022-11-29T05:39:01.941Z,73.10
2022-11-29T05:44:13.936Z,75.30
2022-11-29T05:49:30.084Z,76.90
2022-11-29T05:54:44.714Z,82.50
2022-11-29T05:59:52.857Z,77.10
2022-11-29T06:05:08.542Z,72.30
2022-11-29T06:10:17.895Z,72.20
2022-11-29T06:15:50.023Z,69.60
2022-11-29T06:21:12.661Z,67.70
2022-11-29T06:26:39.347Z,71.70
2022-11-29T06:31:51.269Z,67.80
2022-11-29T06:37:05.372Z,68.50
2022-11-29T06:42:12.159Z,73.30
2022-11-29T06:47:27.739Z,74.50
2022-11-29T06:52:45.446Z,71.50
2022-11-29T06:58:04.763Z,70.90
2022-11-29T07:03:38.974Z,69.90
2022-11-29T07:08:46.667Z,64.40
2022-11-29T07:13:54.411Z,75.40
2022-11-29T07:19:13.430Z,73.40
2022-11-29T07:24:34.876Z,69.00
2022-11-29T07:29:51.044Z,71.80
2022-11-29T07:35:09.440Z,69.40
2022-11-29T07:40:21.049Z,70.80
2022-11-29T07:45:31.897Z,69.70
2022-11-29T07:50:40.425Z,83.30
2022-11-29T07:55:48.526Z,74.80
2022-11-29T08:00:56.029Z,79.30
2022-11-29T08:06:03.024Z,79.80
2022-11-29T08:11:15.558Z,76.50
2022-11-29T08:16:22.728Z,69.70
2022-11-29T08:21:29.642Z,74.30
2022-11-29T08:26:36.420Z,79.80
2022-11-29T08:31:43.409Z,76.40
2022-11-29T08:36:50.554Z,83.70
2022-11-29T08:41:57.273Z,73.80
2022-11-29T08:47:22.362Z,72.50
2022-11-29T08:52:47.424Z,76.90
2022-11-29T08:58:02.180Z,74.20
2022-11-29T09:03:27.572Z,80.00
2022-11-29T09:08:34.474Z,78.40
2022-11-29T09:13:41.779Z,77.80
2022-11-29T09:18:52.164Z,77.50
2022-11-29T09:24:01.580Z,72.90
2022-11-29T09:29:09.280Z,75.50
2022-11-29T09:34:18.560Z,74.30
2022-11-29T09:39:26.312Z,73.70
2022-11-29T09:44:47.489Z,75.90
2022-11-29T09:50:03.183Z,73.90
2022-11-29T09:55:28.811Z,76.70
2022-11-29T10:00:44.002Z,75.60
2022-11-29T10:05:55.279Z,74.70
2022-11-29T10:11:19.696Z,70.50
2022-11-29T10:16:35.085Z,69.50
2022-11-29T10:21:46.693Z,73.20
2022-11-29T10:26:54.375Z,75.00
2022-11-29T10:32:10.056Z,71.10
2022-11-29T10:37:21.100Z,70.90
2022-11-29T10:42:47.850Z,79.50
2022-11-29T10:47:57.580Z,65.60
2022-11-29T10:53:09.034Z,75.80
2022-11-29T10:58:23.293Z,70.80
2022-11-29T11:03:39.973Z,65.20
2022-11-29T11:08:49.766Z,63.40
2022-11-29T11:14:03.790Z,72.50
2022-11-29T11:19:29.304Z,72.50
2022-11-29T11:24:41.120Z,73.70
2022-11-29T11:29:48.183Z,68.00
2022-11-29T11:34:57.092Z,64.90
2022-11-29T11:40:28.978Z,72.90
2022-11-29T11:50:46.318Z,64.60
2022-11-29T11:56:02.120Z,69.60
2022-11-29T12:01:25.207Z,67.30
2022-11-29T12:06:43.286Z,71.30
2022-11-29T12:12:00.379Z,66.60
2022-11-29T12:17:19.937Z,66.00
2022-11-29T12:22:34.920Z,70.00
2022-11-29T12:27:41.786Z,70.10
2022-11-29T12:33:02.899Z,62.90
2022-11-29T12:38:22.697Z,63.60
2022-11-29T12:43:38.840Z,69.80
2022-11-29T12:48:55.764Z,59.80
2022-11-29T12:54:34.039Z,53.60
2022-11-29T13:00:00.823Z,63.90
2022-11-29T13:05:20.463Z,58.90
2022-11-29T13:10:44.400Z,56.00
2022-11-29T13:16:02.342Z,57.20
2022-11-29T13:21:15.441Z,54.40
2022-11-29T13:26:26.489Z,61.80
2022-11-29T13:31:34.916Z,64.80
2022-11-29T13:36:53.195Z,70.40
2022-11-29T13:42:11.612Z,62.00
2022-11-29T13:47:20.468Z,64.10
2022-11-29T13:52:38.824Z,61.50
2022-11-29T13:58:15.456Z,66.40
2022-11-29T14:03:35.035Z,72.10
2022-11-29T14:09:17.175Z,66.20
2022-11-29T14:14:21.504Z,71.20
2022-11-29T14:19:33.784Z,76.80
2022-11-29T14:24:56.537Z,71.00
2022-11-29T14:30:04.268Z,70.00
2022-11-29T14:35:18.262Z,76.80
2022-11-29T14:40:32.578Z,111.30
2022-11-29T14:45:39.593Z,113.00
2022-11-29T14:50:46.720Z,86.30
2022-11-29T14:56:13.473Z,76.80
2022-11-29T15:01:23.698Z,86.90
2022-11-29T15:06:36.934Z,88.30
2022-11-29T15:11:54.333Z,100.60
2022-11-29T15:17:23.214Z,80.90
2022-11-29T15:22:39.359Z,81.40
2022-11-29T15:27:57.415Z,93.30
2022-11-29T15:33:06.498Z,89.90
2022-11-29T15:38:20.481Z,84.90
2022-11-29T15:43:31.379Z,88.80
2022-11-29T15:48:38.161Z,82.30
2022-11-29T15:53:48.502Z,88.30
2022-11-29T15:59:02.460Z,83.40
2022-11-29T16:04:18.853Z,88.20
2022-11-29T16:09:35.902Z,91.90
2022-11-29T16:14:56.179Z,90.10
2022-11-29T16:20:25.737Z,88.00
2022-11-29T16:25:37.637Z,88.80
2022-11-29T16:35:50.417Z,94.40
2022-11-29T16:41:23.125Z,101.70
2022-11-29T16:46:38.312Z,107.90
2022-11-29T16:51:49.162Z,97.00
2022-11-29T16:56:58.034Z,104.50
2022-11-29T17:02:07.422Z,90.50
2022-11-29T17:07:23.837Z,97.80
2022-11-29T17:12:31.272Z,103.80
2022-11-29T17:17:38.366Z,105.00
2022-11-29T17:22:47.950Z,109.20
2022-11-29T17:27:54.951Z,100.60
2022-11-29T17:33:11.779Z,114.90
2022-11-29T17:38:30.031Z,120.00
2022-11-29T17:43:45.684Z,103.50
2022-11-29T17:49:02.573Z,111.50
2022-11-29T17:54:26.938Z,109.50
2022-11-29T17:59:52.659Z,108.60
2022-11-29T18:05:04.198Z,112.70
2022-11-29T18:10:12.931Z,120.60
2022-11-29T18:15:26.264Z,112.50
2022-11-29T18:20:34.572Z,110.40
2022-11-29T18:26:01.232Z,109.50
2022-11-29T18:31:17.713Z,108.10
2022-11-29T18:36:43.148Z,112.20
2022-11-29T18:41:58.458Z,120.70
2022-11-29T18:47:16.016Z,106.30
2022-11-29T18:52:23.152Z,110.00
2022-11-29T18:57:30.289Z,111.90
2022-11-29T19:02:37.119Z,110.60
2022-11-29T19:07:46.843Z,119.10
2022-11-29T19:12:54.975Z,126.30
2022-11-29T19:18:02.126Z,111.50
2022-11-29T19:23:13.962Z,109.90
2022-11-29T19:28:22.834Z,116.40
2022-11-29T19:33:29.680Z,112.60
2022-11-29T19:38:39.146Z,139.30
2022-11-29T19:43:47.998Z,110.10
2022-11-29T19:48:57.355Z,120.80
2022-11-29T19:54:06.904Z,123.60
2022-11-29T19:59:14.307Z,120.20
2022-11-29T20:04:21.550Z,127.60
2022-11-29T20:09:29.266Z,128.80
2022-11-29T20:14:36.071Z,132.20
2022-11-29T20:19:43.025Z,138.50
2022-11-29T20:24:50.623Z,144.80
2022-11-29T20:29:57.378Z,136.00
2022-11-29T20:35:06.175Z,131.10
2022-11-29T20:40:18.872Z,139.50
2022-11-29T20:45:27.242Z,137.40
2022-11-29T20:50:35.054Z,139.20
2022-11-29T20:55:47.767Z,144.40
2022-11-29T21:00:55.753Z,132.40
2022-11-29T21:06:05.043Z,141.20
2022-11-29T21:11:12.974Z,138.40
2022-11-29T21:16:27.677Z,163.60
2022-11-29T21:21:40.887Z,164.40
2022-11-29T21:26:53.106Z,156.80
2022-11-29T21:32:02.159Z,139.50
2022-11-29T21:37:11.635Z,149.40
2022-11-29T21:42:18.763Z,156.50
2022-11-29T21:47:26.181Z,166.20
2022-11-29T21:52:32.999Z,155.10
2022-11-29T21:57:40.186Z,165.00
2022-11-29T22:02:46.932Z,163.20
2022-11-29T22:07:57.933Z,151.50
2022-11-29T22:13:04.801Z,166.70
2022-11-29T22:18:12.962Z,138.10
2022-11-29T22:23:19.975Z,163.70
2022-11-29T22:28:26.902Z,162.10
2022-11-29T22:33:34.833Z,166.20
2022-11-29T22:38:42.691Z,165.90
2022-11-29T22:43:49.695Z,173.70
2022-11-29T22:49:00.466Z,160.80
2022-11-29T22:54:10.590Z,152.30
2022-11-29T22:59:17.466Z,156.20
2022-11-29T23:04:24.474Z,162.10
2022-11-29T23:09:31.428Z,165.40
2022-11-29T23:14:38.226Z,181.40
2022-11-29T23:19:45.096Z,172.20
2022-11-29T23:24:51.869Z,189.90
2022-11-29T23:29:58.767Z,189.80
2022-11-29T23:35:06.139Z,179.40
2022-11-29T23:40:14.786Z,169.50
2022-11-29T23:45:21.866Z,164.20
2022-11-29T23:50:28.628Z,171.10
2022-11-29T23:55:35.607Z,170.00
